Time;durP1;ratioP1;P1;durP2;ratioP2;P2;SDS_P1;SDS_P2;PMS_P1;PMS_P2;Temp;Humidity;BMP_temperature;BMP_pressure;BME280_temperature;BME280_humidity;BME280_pressure;Samples;Min_cycle;Max_cycle;Signal;HPM_P1;HPM_P2
2022/03/03 00:01:32;;;;;;;22.60;10.97;;;5.90;87.90;;;;;;4946434;28;20193;-78
2022/03/03 00:03:57;;;;;;;17.20;10.20;;;5.80;88.00;;;;;;4963224;28;20256;-78
2022/03/03 00:06:23;;;;;;;23.17;10.80;;;5.80;88.10;;;;;;4961541;28;20192;-78
2022/03/03 00:08:48;;;;;;;22.00;10.97;;;5.80;88.20;;;;;;4950154;28;20899;-78
2022/03/03 00:11:14;;;;;;;21.07;10.83;;;5.70;88.30;;;;;;4946673;28;20220;-77
2022/03/03 00:13:40;;;;;;;20.63;10.70;;;5.70;88.50;;;;;;4952980;28;20205;-78
2022/03/03 00:16:05;;;;;;;20.10;10.03;;;5.70;88.60;;;;;;4944645;28;20213;-78
2022/03/03 00:18:32;;;;;;;19.47;10.17;;;5.70;88.70;;;;;;4931364;28;20194;-78
2022/03/03 00:20:57;;;;;;;16.80;10.30;;;5.60;88.80;;;;;;4962576;28;20543;-77
2022/03/03 00:23:23;;;;;;;17.47;10.20;;;5.70;88.90;;;;;;4953428;28;20191;-78
2022/03/03 00:25:48;;;;;;;22.07;10.87;;;5.60;89.70;;;;;;4917072;28;20231;-78
2022/03/03 00:28:14;;;;;;;19.73;10.43;;;5.60;89.10;;;;;;4965284;28;20305;-77
2022/03/03 00:30:40;;;;;;;20.40;11.10;;;5.60;89.20;;;;;;4946920;28;20383;-78
2022/03/03 00:33:05;;;;;;;18.87;10.60;;;5.50;89.20;;;;;;4937524;28;20229;-77
2022/03/03 00:35:31;;;;;;;22.33;11.43;;;5.50;89.50;;;;;;4964855;28;20697;-77
2022/03/03 00:37:56;;;;;;;24.00;11.50;;;5.50;89.70;;;;;;4952019;28;20220;-78
2022/03/03 00:40:22;;;;;;;19.60;10.90;;;5.50;89.90;;;;;;4959450;28;20216;-76
2022/03/03 00:42:48;;;;;;;19.87;10.77;;;5.40;90.00;;;;;;4944004;28;20201;-78
2022/03/03 00:45:13;;;;;;;20.23;10.97;;;5.40;90.10;;;;;;4946227;28;20288;-78
2022/03/03 00:47:39;;;;;;;24.60;11.20;;;5.40;90.20;;;;;;4959005;28;20295;-78
2022/03/03 00:50:05;;;;;;;19.27;10.93;;;5.40;90.20;;;;;;4967333;28;20271;-77
2022/03/03 00:52:31;;;;;;;20.50;10.30;;;5.40;90.30;;;;;;4963265;28;20217;-78
2022/03/03 00:54:57;;;;;;;22.97;10.73;;;5.30;90.30;;;;;;4965336;28;20220;-78
2022/03/03 00:57:22;;;;;;;21.47;11.00;;;5.30;90.40;;;;;;4946700;28;20661;-78
2022/03/03 00:59:48;;;;;;;22.17;11.03;;;5.30;90.50;;;;;;4961457;28;20237;-77
2022/03/03 01:02:14;;;;;;;18.13;10.43;;;5.20;90.60;;;;;;4960771;28;20474;-78
2022/03/03 01:04:39;;;;;;;20.80;10.80;;;5.20;90.60;;;;;;4962207;28;20257;-77
2022/03/03 01:07:05;;;;;;;17.33;9.70;;;5.20;90.70;;;;;;4946676;28;20535;-77
2022/03/03 01:09:31;;;;;;;18.13;10.27;;;5.10;90.80;;;;;;4921945;28;20189;-78
2022/03/03 01:11:57;;;;;;;19.83;10.73;;;5.10;90.80;;;;;;4964532;28;20710;-78
2022/03/03 01:14:25;;;;;;;19.13;10.60;;;5.10;90.90;;;;;;4951620;28;20220;-77
2022/03/03 01:16:51;;;;;;;20.60;10.63;;;5.20;91.00;;;;;;4964260;28;20194;-78
2022/03/03 01:19:18;;;;;;;18.93;10.63;;;5.10;91.10;;;;;;4961868;28;20185;-76
2022/03/03 01:21:44;;;;;;;20.93;10.60;;;5.10;91.20;;;;;;4953857;28;20197;-77
2022/03/03 01:24:10;;;;;;;23.10;10.63;;;5.00;91.20;;;;;;4962361;28;20675;-78
2022/03/03 01:26:36;;;;;;;21.57;10.97;;;5.00;91.20;;;;;;4966187;28;20600;-78
2022/03/03 01:29:02;;;;;;;19.43;10.83;;;5.00;91.30;;;;;;4965939;28;20287;-77
2022/03/03 01:31:28;;;;;;;19.60;10.23;;;5.00;91.40;;;;;;4963817;28;20204;-78
2022/03/03 01:33:54;;;;;;;17.90;10.83;;;5.00;91.50;;;;;;4962152;28;20543;-78
2022/03/03 01:36:20;;;;;;;21.07;10.27;;;4.90;91.60;;;;;;4951543;28;20835;-77
2022/03/03 01:38:45;;;;;;;22.30;10.87;;;4.90;91.70;;;;;;4946657;28;20182;-77
2022/03/03 01:41:11;;;;;;;21.23;10.53;;;4.90;91.80;;;;;;4953519;28;20652;-77
2022/03/03 01:43:38;;;;;;;19.60;10.70;;;4.90;91.90;;;;;;4961371;28;20209;-78
2022/03/03 01:46:04;;;;;;;19.40;11.07;;;4.80;92.00;;;;;;4963839;28;20625;-77
2022/03/03 01:48:30;;;;;;;18.80;10.80;;;4.80;92.20;;;;;;4967025;28;20782;-77
2022/03/03 01:50:56;;;;;;;18.77;11.00;;;4.80;92.20;;;;;;4965783;28;20216;-78
2022/03/03 01:53:22;;;;;;;18.90;10.87;;;4.80;92.30;;;;;;4941178;28;20185;-76
2022/03/03 01:55:50;;;;;;;21.03;10.37;;;4.80;92.40;;;;;;4964323;28;20296;-76
2022/03/03 01:58:16;;;;;;;18.70;10.93;;;4.80;92.50;;;;;;4966089;28;20205;-77
2022/03/03 02:00:44;;;;;;;21.53;11.03;;;4.70;92.60;;;;;;4968228;28;20216;-79
2022/03/03 02:03:10;;;;;;;25.40;11.43;;;4.70;92.70;;;;;;4961135;28;20241;-79
2022/03/03 02:05:36;;;;;;;20.70;9.93;;;4.70;92.80;;;;;;4951701;28;20598;-79
2022/03/03 02:08:02;;;;;;;22.23;10.57;;;4.70;92.90;;;;;;4952197;28;20197;-80
2022/03/03 02:10:28;;;;;;;23.50;11.43;;;4.70;93.00;;;;;;4950555;28;20256;-79
2022/03/03 02:12:53;;;;;;;23.90;11.20;;;4.60;93.10;;;;;;4945653;28;20301;-80
2022/03/03 02:15:21;;;;;;;23.03;11.23;;;4.60;93.30;;;;;;4960310;28;20296;-78
2022/03/03 02:17:46;;;;;;;19.90;11.37;;;4.60;93.40;;;;;;4961678;28;20681;-79
2022/03/03 02:20:27;;;;;;;20.40;11.40;;;4.60;93.60;;;;;;4947082;28;20205;-78
2022/03/03 02:22:55;;;;;;;19.77;10.43;;;4.60;93.80;;;;;;4963142;28;20185;-79
2022/03/03 02:25:22;;;;;;;20.47;11.63;;;4.50;93.80;;;;;;4946843;28;20755;-79
2022/03/03 02:27:48;;;;;;;20.77;11.23;;;4.50;94.00;;;;;;4962760;28;20217;-77
2022/03/03 02:30:16;;;;;;;21.70;10.47;;;4.50;94.10;;;;;;4944488;28;20291;-77
2022/03/03 02:32:42;;;;;;;21.80;11.40;;;4.40;94.20;;;;;;4968441;28;20278;-79
2022/03/03 02:35:08;;;;;;;17.37;10.50;;;4.40;94.40;;;;;;4962354;28;20296;-79
2022/03/03 02:37:37;;;;;;;19.53;11.00;;;4.40;94.50;;;;;;4952621;28;20570;-78
2022/03/03 02:40:05;;;;;;;24.97;12.47;;;4.30;95.00;;;;;;4960601;28;20194;-78
2022/03/03 02:42:30;;;;;;;22.80;11.50;;;4.30;94.80;;;;;;4947572;28;20189;-80
2022/03/03 02:44:56;;;;;;;22.03;11.60;;;4.30;95.00;;;;;;4960763;28;20189;-79
2022/03/03 02:47:22;;;;;;;20.53;10.90;;;4.30;95.10;;;;;;4961110;28;20190;-78
2022/03/03 02:49:48;;;;;;;23.10;12.30;;;4.30;95.30;;;;;;4962604;28;20279;-79
2022/03/03 02:52:14;;;;;;;21.47;11.73;;;4.30;95.50;;;;;;4959389;28;20208;-78
2022/03/03 02:54:40;;;;;;;24.03;12.23;;;4.30;95.60;;;;;;4961805;28;20218;-79
2022/03/03 02:59:51;;;;;;;23.43;11.47;;;4.30;95.90;;;;;;4963660;28;20271;-78
2022/03/03 03:02:16;;;;;;;20.97;11.47;;;4.30;96.10;;;;;;4959311;28;20667;-79
2022/03/03 03:04:42;;;;;;;20.87;11.53;;;4.20;96.30;;;;;;4945716;28;20294;-80
2022/03/03 03:07:08;;;;;;;23.40;12.63;;;4.20;96.40;;;;;;4951398;28;20193;-79
2022/03/03 03:09:33;;;;;;;21.00;11.77;;;4.30;96.90;;;;;;4947078;28;20313;-78
2022/03/03 03:11:59;;;;;;;23.30;11.70;;;4.30;96.70;;;;;;4944555;28;20539;-78
2022/03/03 03:14:25;;;;;;;23.87;11.80;;;4.30;96.80;;;;;;4944182;28;20240;-78
2022/03/03 03:16:50;;;;;;;21.60;11.67;;;4.20;97.00;;;;;;4960269;28;20181;-78
2022/03/03 03:19:16;;;;;;;23.73;11.87;;;4.20;97.10;;;;;;4949766;28;20272;-79
2022/03/03 03:21:42;;;;;;;23.00;11.40;;;4.20;97.30;;;;;;4963465;28;20201;-78
2022/03/03 03:24:07;;;;;;;22.63;11.40;;;4.20;97.50;;;;;;4960227;28;20230;-78
2022/03/03 03:26:33;;;;;;;21.97;12.17;;;4.10;97.60;;;;;;4944771;28;20189;-79
2022/03/03 03:28:59;;;;;;;22.57;11.33;;;4.10;97.80;;;;;;4959458;28;20296;-78
2022/03/03 03:31:26;;;;;;;23.43;11.93;;;4.10;98.00;;;;;;4948807;28;20232;-78
2022/03/03 03:33:53;;;;;;;26.13;12.80;;;4.10;98.20;;;;;;4965504;28;20194;-77
2022/03/03 03:36:19;;;;;;;21.83;12.17;;;4.10;98.40;;;;;;4935214;28;20255;-78
2022/03/03 03:38:45;;;;;;;25.50;12.83;;;4.10;98.60;;;;;;4955694;28;20228;-77
2022/03/03 03:41:12;;;;;;;24.57;12.33;;;4.10;98.80;;;;;;4964128;28;20196;-76
2022/03/03 03:43:38;;;;;;;19.73;11.67;;;4.10;99.00;;;;;;4947750;28;20682;-78
2022/03/03 03:46:04;;;;;;;24.27;12.40;;;4.10;99.10;;;;;;4965024;28;20185;-78
2022/03/03 03:48:30;;;;;;;23.90;12.70;;;4.10;99.30;;;;;;4965483;28;20734;-78
2022/03/03 03:50:55;;;;;;;23.03;12.33;;;4.10;99.50;;;;;;4963618;28;20204;-77
2022/03/03 03:53:21;;;;;;;24.50;12.10;;;4.10;99.90;;;;;;4964591;28;20545;-78
2022/03/03 03:55:47;;;;;;;23.27;12.63;;;4.10;99.80;;;;;;4963229;28;20305;-78
2022/03/03 03:58:13;;;;;;;24.43;12.83;;;4.10;99.90;;;;;;4964077;28;20210;-78
2022/03/03 04:00:39;;;;;;;23.10;11.90;;;4.00;99.90;;;;;;4963699;28;20266;-78
2022/03/03 04:03:05;;;;;;;20.17;11.27;;;4.00;99.90;;;;;;4932782;28;20240;-78
2022/03/03 04:05:30;;;;;;;20.70;11.63;;;4.00;99.90;;;;;;4948572;28;20201;-77
2022/03/03 04:07:56;;;;;;;28.03;13.43;;;4.00;99.90;;;;;;4922651;28;20193;-78
2022/03/03 04:10:22;;;;;;;22.07;11.53;;;4.00;99.90;;;;;;4965760;28;20200;-77
2022/03/03 04:12:48;;;;;;;26.23;12.63;;;3.90;99.90;;;;;;4961659;28;20225;-77
2022/03/03 04:15:14;;;;;;;23.47;12.93;;;3.90;99.90;;;;;;4965467;28;20224;-78
2022/03/03 04:17:39;;;;;;;22.90;12.73;;;3.80;99.90;;;;;;4947823;28;20197;-76
2022/03/03 04:20:06;;;;;;;21.23;12.10;;;3.80;99.90;;;;;;4966802;28;20220;-78
2022/03/03 04:22:33;;;;;;;22.00;11.73;;;3.80;99.90;;;;;;4964571;28;20193;-77
2022/03/03 04:24:58;;;;;;;25.87;13.03;;;3.80;99.90;;;;;;4962580;28;20685;-77
2022/03/03 04:27:24;;;;;;;22.67;11.60;;;3.80;99.90;;;;;;4963111;28;20205;-78
2022/03/03 04:29:50;;;;;;;24.37;13.67;;;3.80;99.90;;;;;;4958545;28;20219;-77
2022/03/03 04:32:15;;;;;;;25.97;13.33;;;3.80;99.90;;;;;;4922495;28;20211;-77
2022/03/03 04:34:42;;;;;;;23.77;13.47;;;3.80;99.90;;;;;;4948410;28;20213;-78
2022/03/03 04:37:08;;;;;;;21.27;12.23;;;3.70;99.90;;;;;;4945583;28;20173;-77
2022/03/03 04:39:34;;;;;;;23.80;13.27;;;3.70;99.90;;;;;;4949428;28;20207;-77
2022/03/03 04:41:59;;;;;;;23.73;12.70;;;3.70;99.90;;;;;;4946637;28;20257;-77
2022/03/03 04:44:26;;;;;;;22.70;13.17;;;3.60;99.90;;;;;;4965315;28;20235;-77
2022/03/03 04:46:52;;;;;;;25.97;12.73;;;3.70;99.90;;;;;;4947866;28;20201;-78
2022/03/03 04:49:18;;;;;;;25.40;12.70;;;3.60;99.90;;;;;;4963850;28;20217;-77
2022/03/03 04:51:44;;;;;;;22.33;12.10;;;3.60;99.90;;;;;;4962004;28;20197;-77
2022/03/03 04:54:10;;;;;;;24.93;13.37;;;3.50;99.90;;;;;;4964184;28;20718;-77
2022/03/03 04:56:37;;;;;;;23.53;12.77;;;3.60;99.90;;;;;;4953697;28;20323;-78
2022/03/03 04:59:04;;;;;;;22.80;12.77;;;3.60;99.90;;;;;;4945519;28;20341;-78
2022/03/03 05:01:29;;;;;;;25.37;13.67;;;3.50;99.90;;;;;;4939097;28;20844;-77
2022/03/03 05:03:55;;;;;;;24.83;13.20;;;3.50;99.90;;;;;;4944033;28;20392;-79
2022/03/03 05:06:21;;;;;;;25.37;13.90;;;3.50;99.90;;;;;;4955537;28;20198;-78
2022/03/03 05:08:46;;;;;;;27.53;14.10;;;3.50;99.90;;;;;;4941379;28;20196;-78
2022/03/03 05:11:12;;;;;;;27.33;13.27;;;3.40;99.90;;;;;;4950301;28;20206;-78
2022/03/03 05:13:38;;;;;;;28.07;13.63;;;3.40;99.90;;;;;;4961928;28;20272;-78
2022/03/03 05:16:04;;;;;;;25.60;13.70;;;3.40;99.90;;;;;;4937145;28;20659;-77
2022/03/03 05:18:30;;;;;;;23.97;12.93;;;3.40;99.90;;;;;;4963038;28;20200;-78
2022/03/03 05:20:56;;;;;;;28.40;13.37;;;3.40;99.90;;;;;;4951419;28;20197;-79
2022/03/03 05:23:22;;;;;;;25.27;13.83;;;3.40;99.90;;;;;;4951092;28;20620;-78
2022/03/03 05:25:48;;;;;;;27.33;12.67;;;3.40;99.90;;;;;;4966014;28;20193;-77
2022/03/03 05:28:14;;;;;;;24.30;13.47;;;3.40;99.90;;;;;;4969142;28;20586;-77
2022/03/03 05:30:39;;;;;;;23.87;13.73;;;3.40;99.90;;;;;;4966283;28;20276;-78
2022/03/03 05:33:05;;;;;;;26.90;13.73;;;3.40;99.90;;;;;;4965582;28;20212;-78
2022/03/03 05:35:31;;;;;;;26.77;13.67;;;3.40;99.90;;;;;;4964981;28;20253;-78
2022/03/03 05:37:56;;;;;;;25.07;13.67;;;3.30;99.90;;;;;;4952244;28;20745;-78
2022/03/03 05:40:22;;;;;;;26.77;13.87;;;3.30;99.90;;;;;;4966134;28;20702;-76
2022/03/03 05:42:48;;;;;;;27.80;14.30;;;3.30;99.90;;;;;;4948851;28;20302;-78
2022/03/03 05:45:14;;;;;;;33.10;14.63;;;3.30;99.90;;;;;;4968819;28;20201;-78
2022/03/03 05:47:41;;;;;;;25.27;14.10;;;3.20;99.90;;;;;;4950971;28;20193;-78
2022/03/03 05:50:07;;;;;;;24.63;13.63;;;3.20;99.90;;;;;;4968742;28;20202;-78
2022/03/03 05:52:33;;;;;;;24.83;13.03;;;3.20;99.90;;;;;;4966688;28;20182;-79
2022/03/03 05:54:59;;;;;;;27.77;14.00;;;3.20;99.90;;;;;;4965982;28;20216;-78
2022/03/03 05:57:45;;;;;;;25.37;13.97;;;3.20;99.90;;;;;;4966970;28;20193;-77
2022/03/03 06:00:14;;;;;;;27.90;14.07;;;3.20;99.90;;;;;;4950379;28;20292;-78
2022/03/03 06:02:53;;;;;;;26.83;13.23;;;3.20;99.90;;;;;;4962732;28;20216;-79
2022/03/03 06:05:27;;;;;;;25.97;13.87;;;3.20;99.90;;;;;;4956929;28;20204;-77
2022/03/03 06:08:05;;;;;;;25.47;13.53;;;3.10;99.90;;;;;;4965022;28;20193;-78
2022/03/03 06:10:35;;;;;;;29.80;14.80;;;3.10;99.90;;;;;;4968333;28;20503;-78
2022/03/03 06:13:23;;;;;;;23.37;13.23;;;3.10;99.90;;;;;;4937041;28;20297;-78
2022/03/03 06:15:49;;;;;;;30.27;14.77;;;3.10;99.90;;;;;;4968394;28;20696;-78
2022/03/03 06:18:15;;;;;;;29.03;14.23;;;3.10;99.90;;;;;;4954288;28;20189;-78
2022/03/03 06:20:44;;;;;;;24.80;13.63;;;3.00;99.90;;;;;;4969185;28;20201;-78
2022/03/03 06:23:10;;;;;;;25.40;13.53;;;3.00;99.90;;;;;;4967443;28;20311;-78
2022/03/03 06:25:37;;;;;;;33.30;15.30;;;3.00;99.90;;;;;;4948207;28;20296;-78
2022/03/03 06:28:03;;;;;;;28.63;15.33;;;3.00;99.90;;;;;;4949484;28;21056;-79
2022/03/03 06:30:31;;;;;;;34.17;15.60;;;3.00;99.90;;;;;;4963651;28;20205;-78
2022/03/03 06:32:56;;;;;;;30.20;15.70;;;3.00;99.90;;;;;;4966147;28;20240;-78
2022/03/03 06:35:23;;;;;;;32.80;15.77;;;3.00;99.90;;;;;;4963074;28;20213;-78
2022/03/03 06:37:48;;;;;;;33.60;16.23;;;3.00;99.90;;;;;;4966234;28;20514;-79
2022/03/03 06:40:14;;;;;;;31.07;16.40;;;3.00;99.90;;;;;;4964417;28;20328;-78
2022/03/03 06:42:40;;;;;;;33.77;16.80;;;3.10;99.90;;;;;;4936666;28;20213;-78
2022/03/03 06:45:06;;;;;;;29.43;15.70;;;3.00;99.90;;;;;;4964377;28;20197;-77
2022/03/03 06:47:31;;;;;;;31.27;14.70;;;3.10;99.90;;;;;;4965086;28;20194;-79
2022/03/03 06:49:57;;;;;;;27.40;14.60;;;3.00;99.90;;;;;;4938261;28;20204;-77
2022/03/03 06:52:26;;;;;;;28.73;15.13;;;3.10;99.90;;;;;;4949531;28;20207;-79
2022/03/03 06:54:52;;;;;;;30.53;15.73;;;3.10;99.90;;;;;;4966326;28;20289;-78
2022/03/03 06:57:22;;;;;;;30.40;15.47;;;3.20;99.90;;;;;;4965950;28;20208;-77
2022/03/03 06:59:51;;;;;;;28.90;14.70;;;3.30;99.90;;;;;;4969533;28;20666;-79
2022/03/03 07:02:17;;;;;;;28.00;15.67;;;3.30;99.90;;;;;;4968344;28;20260;-80
2022/03/03 07:04:48;;;;;;;32.97;14.80;;;3.20;99.90;;;;;;4965837;28;20690;-80
2022/03/03 07:07:13;;;;;;;25.57;14.40;;;3.20;99.90;;;;;;4970229;28;20227;-79
2022/03/03 07:09:41;;;;;;;29.07;15.63;;;3.30;99.90;;;;;;4952523;28;20193;-79
2022/03/03 07:12:07;;;;;;;27.53;15.07;;;3.30;99.90;;;;;;4973305;28;20192;-79
2022/03/03 07:14:33;;;;;;;27.73;13.93;;;3.30;99.90;;;;;;4970730;28;20209;-79
2022/03/03 07:17:01;;;;;;;28.73;13.90;;;3.50;99.90;;;;;;4944168;28;20189;-78
2022/03/03 07:19:39;;;;;;;30.20;15.43;;;3.70;99.90;;;;;;4974077;28;20184;-78
2022/03/03 07:22:19;;;;;;;24.03;13.83;;;3.70;99.90;;;;;;4972156;28;20765;-79
2022/03/03 07:24:46;;;;;;;25.63;14.70;;;3.70;99.90;;;;;;4959630;28;20208;-79
2022/03/03 07:27:21;;;;;;;26.87;12.77;;;3.60;99.90;;;;;;4963737;28;20197;-80
2022/03/03 07:29:53;;;;;;;25.33;13.37;;;3.60;99.90;;;;;;4962286;28;20192;-80
2022/03/03 07:32:20;;;;;;;28.80;13.17;;;3.60;99.90;;;;;;4962398;28;20193;-78
2022/03/03 07:34:52;;;;;;;28.33;15.00;;;3.60;99.90;;;;;;4952104;28;20230;-80
2022/03/03 07:37:20;;;;;;;28.50;13.97;;;3.60;99.90;;;;;;4949196;28;20541;-78
2022/03/03 07:39:46;;;;;;;27.07;13.53;;;3.70;99.90;;;;;;4964229;28;20200;-79
2022/03/03 07:42:19;;;;;;;24.73;13.87;;;3.60;99.90;;;;;;4960116;28;20212;-79
2022/03/03 07:44:47;;;;;;;28.93;14.43;;;3.70;99.90;;;;;;4963223;28;20189;-79
2022/03/03 07:47:12;;;;;;;27.90;14.73;;;3.70;99.90;;;;;;4961717;28;20200;-79
2022/03/03 07:49:40;;;;;;;30.00;14.23;;;3.70;99.90;;;;;;4945940;28;20192;-78
2022/03/03 07:52:08;;;;;;;30.17;13.73;;;3.80;99.90;;;;;;4943970;28;20223;-79
2022/03/03 07:54:34;;;;;;;26.57;15.17;;;3.80;99.90;;;;;;4961244;28;20208;-79
2022/03/03 07:57:01;;;;;;;28.67;13.67;;;3.90;99.90;;;;;;4961839;28;20185;-79
2022/03/03 07:59:33;;;;;;;28.47;14.40;;;3.90;99.90;;;;;;4962635;28;20225;-79
2022/03/03 08:02:01;;;;;;;27.50;14.37;;;3.90;99.90;;;;;;4967710;28;20184;-79
2022/03/03 08:04:30;;;;;;;30.07;13.87;;;4.00;99.90;;;;;;4953950;28;20244;-78
2022/03/03 08:07:14;;;;;;;28.17;14.13;;;4.00;99.90;;;;;;4970225;28;20646;-79
2022/03/03 08:09:41;;;;;;;31.37;15.10;;;4.10;99.90;;;;;;4954871;28;20189;-78
2022/03/03 08:12:07;;;;;;;25.87;13.47;;;4.10;99.90;;;;;;4967139;28;20184;-78
2022/03/03 08:14:36;;;;;;;32.17;14.70;;;4.20;99.90;;;;;;4950841;28;20299;-78
2022/03/03 08:17:02;;;;;;;23.53;13.37;;;4.20;99.90;;;;;;4955053;28;20185;-79
2022/03/03 08:19:30;;;;;;;26.23;13.97;;;4.30;99.90;;;;;;4968685;28;20200;-78
2022/03/03 08:21:55;;;;;;;26.17;13.77;;;4.30;99.90;;;;;;4962152;28;20193;-77
2022/03/03 08:24:22;;;;;;;29.73;14.60;;;4.40;99.90;;;;;;4967085;28;20260;-78
2022/03/03 08:26:48;;;;;;;25.03;13.90;;;4.40;99.90;;;;;;4966714;28;20581;-79
2022/03/03 08:29:14;;;;;;;26.17;13.70;;;4.50;99.90;;;;;;4940923;28;20201;-79
2022/03/03 08:31:54;;;;;;;27.77;13.53;;;4.50;99.90;;;;;;4970515;28;20204;-78
2022/03/03 08:34:26;;;;;;;25.33;14.10;;;4.60;99.90;;;;;;4970399;28;20221;-77
2022/03/03 08:36:58;;;;;;;25.77;13.30;;;4.70;99.90;;;;;;4959891;28;20255;-78
2022/03/03 08:39:28;;;;;;;28.23;14.57;;;4.80;99.90;;;;;;4961947;28;20220;-79
2022/03/03 08:41:59;;;;;;;23.03;13.73;;;4.80;99.90;;;;;;4943148;28;20224;-79
2022/03/03 08:44:33;;;;;;;27.47;13.90;;;6.00;99.90;;;;;;4949017;28;20267;-79
2022/03/03 08:46:59;;;;;;;25.73;13.43;;;8.40;99.90;;;;;;4963590;28;20188;-79
2022/03/03 08:49:39;;;;;;;28.00;14.40;;;10.50;99.90;;;;;;4933889;28;20209;-79
2022/03/03 08:52:07;;;;;;;26.00;13.50;;;12.30;99.90;;;;;;4958666;28;20200;-78
2022/03/03 08:54:34;;;;;;;26.93;13.77;;;13.60;99.90;;;;;;4960346;28;20583;-78
2022/03/03 08:57:00;;;;;;;20.50;12.57;;;14.70;99.90;;;;;;4964844;28;20189;-78
2022/03/03 08:59:25;;;;;;;22.60;13.73;;;15.40;99.90;;;;;;4962055;28;20617;-79
2022/03/03 09:01:51;;;;;;;23.40;12.90;;;15.90;98.80;;;;;;4961552;28;20197;-79
2022/03/03 09:04:18;;;;;;;31.43;13.80;;;16.60;97.20;;;;;;4962994;28;20241;-80
2022/03/03 09:06:44;;;;;;;29.67;14.63;;;17.10;95.50;;;;;;4947694;28;20201;-79
2022/03/03 09:09:11;;;;;;;25.03;13.57;;;17.50;93.90;;;;;;4946318;28;20198;-79
2022/03/03 09:11:37;;;;;;;24.60;13.63;;;17.90;92.60;;;;;;4960538;28;20321;-77
2022/03/03 09:14:02;;;;;;;22.67;13.47;;;18.40;91.10;;;;;;4915059;28;20278;-79
2022/03/03 09:16:28;;;;;;;28.10;14.53;;;18.80;89.30;;;;;;4967044;28;20258;-79
2022/03/03 09:18:54;;;;;;;20.07;13.47;;;19.20;86.50;;;;;;4938574;28;20230;-78
2022/03/03 09:21:20;;;;;;;21.43;13.03;;;19.40;83.70;;;;;;4952923;28;20197;-79
2022/03/03 09:23:45;;;;;;;22.03;12.93;;;19.70;81.60;;;;;;4930475;28;20192;-79
2022/03/03 09:26:11;;;;;;;22.20;13.47;;;20.10;79.10;;;;;;4947188;28;20194;-82
2022/03/03 09:28:37;;;;;;;23.13;14.03;;;20.20;77.00;;;;;;4962233;28;20223;-82
2022/03/03 09:31:03;;;;;;;21.67;13.07;;;20.30;75.40;;;;;;4962116;28;20271;-80
2022/03/03 09:33:29;;;;;;;22.23;12.60;;;20.70;73.90;;;;;;4949892;28;20189;-78
2022/03/03 09:35:54;;;;;;;16.47;11.87;;;21.10;72.00;;;;;;4949928;28;20209;-79
2022/03/03 09:38:20;;;;;;;21.40;11.97;;;21.30;70.00;;;;;;4946345;28;20198;-78
2022/03/03 09:40:48;;;;;;;16.90;11.30;;;21.40;68.30;;;;;;4965990;28;20319;-80
2022/03/03 09:43:14;;;;;;;27.33;13.67;;;21.50;66.60;;;;;;4963792;28;21082;-75
2022/03/03 09:45:40;;;;;;;21.87;12.13;;;21.70;66.40;;;;;;4960687;28;20206;-79
2022/03/03 09:48:07;;;;;;;61.53;16.20;;;21.50;67.40;;;;;;4964161;28;20265;-76
2022/03/03 09:50:35;;;;;;;17.50;11.70;;;21.30;66.00;;;;;;4965842;28;20216;-81
2022/03/03 09:53:06;;;;;;;19.03;11.90;;;21.30;66.40;;;;;;4962814;28;20207;-79
2022/03/03 09:55:32;;;;;;;24.00;12.40;;;21.50;64.40;;;;;;4967764;28;20222;-78
2022/03/03 09:57:57;;;;;;;16.37;11.60;;;21.90;63.60;;;;;;4963849;28;20214;-80
2022/03/03 10:00:23;;;;;;;16.73;10.93;;;22.00;61.90;;;;;;4969712;28;20243;-75
2022/03/03 10:03:07;;;;;;;15.93;12.03;;;22.40;60.60;;;;;;4962097;28;20578;-79
2022/03/03 10:05:37;;;;;;;18.73;11.50;;;22.90;58.50;;;;;;4961741;28;20204;-80
2022/03/03 10:08:06;;;;;;;17.77;11.63;;;23.20;57.70;;;;;;4961058;28;20264;-79
2022/03/03 10:10:32;;;;;;;18.90;12.43;;;23.60;57.00;;;;;;4963085;28;20299;-79
2022/03/03 10:12:58;;;;;;;15.87;11.37;;;24.30;55.60;;;;;;4965143;28;20315;-81
2022/03/03 10:15:28;;;;;;;18.17;12.07;;;24.80;54.20;;;;;;4953132;28;20225;-79
2022/03/03 10:18:00;;;;;;;22.30;12.17;;;25.10;52.40;;;;;;4960552;28;20190;-79
2022/03/03 10:20:26;;;;;;;17.87;11.80;;;25.40;51.00;;;;;;4953593;28;20431;-81
2022/03/03 10:22:57;;;;;;;16.70;11.03;;;25.60;50.30;;;;;;4951151;28;20292;-80
2022/03/03 10:25:42;;;;;;;18.27;10.57;;;25.50;49.40;;;;;;4946993;28;20200;-80
2022/03/03 10:28:20;;;;;;;18.10;11.30;;;25.60;48.30;;;;;;4963966;28;20789;-81
2022/03/03 10:31:06;;;;;;;14.23;10.83;;;25.70;47.20;;;;;;4959343;28;20196;-81
2022/03/03 10:33:40;;;;;;;16.40;11.00;;;25.90;47.20;;;;;;4951573;28;20547;-81
2022/03/03 10:36:16;;;;;;;15.17;10.93;;;25.60;46.40;;;;;;4964552;28;20276;-78
2022/03/03 10:38:55;;;;;;;15.73;10.83;;;24.10;44.50;;;;;;4961858;28;20179;-79
2022/03/03 10:41:44;;;;;;;13.50;10.43;;;22.00;45.10;;;;;;4953073;28;20185;-81
2022/03/03 10:44:22;;;;;;;16.10;10.87;;;19.70;46.40;;;;;;4962827;28;20212;-80
2022/03/03 10:47:07;;;;;;;20.17;10.97;;;17.20;48.40;;;;;;4968676;28;20270;-81
2022/03/03 10:49:34;;;;;;;21.53;11.80;;;15.50;50.20;;;;;;4962413;28;20181;-81
2022/03/03 10:52:17;;;;;;;21.30;11.73;;;14.50;51.70;;;;;;4962604;28;20265;-79
2022/03/03 10:55:20;;;;;;;18.67;11.00;;;13.70;53.00;;;;;;4962360;28;20196;-80
2022/03/03 10:57:58;;;;;;;19.83;11.80;;;13.20;53.90;;;;;;4953919;28;20605;-80
2022/03/03 11:00:29;;;;;;;18.43;11.23;;;12.70;54.80;;;;;;4964684;28;20187;-81
2022/03/03 11:02:57;;;;;;;19.13;11.43;;;12.40;55.40;;;;;;4965421;28;20702;-80
2022/03/03 11:05:25;;;;;;;18.83;10.00;;;12.30;56.40;;;;;;4963331;28;20298;-81
2022/03/03 11:07:53;;;;;;;23.43;11.03;;;13.40;58.30;;;;;;4962730;28;20334;-82
2022/03/03 11:10:25;;;;;;;16.37;10.33;;;15.80;58.60;;;;;;4966037;28;20646;-81
2022/03/03 11:12:51;;;;;;;16.63;10.83;;;18.40;56.60;;;;;;4962981;28;20607;-79
2022/03/03 11:15:19;;;;;;;15.60;10.87;;;20.40;54.50;;;;;;4958810;28;20647;-79
2022/03/03 11:17:45;;;;;;;18.50;11.60;;;22.20;52.40;;;;;;4964012;28;20291;-80
2022/03/03 11:20:14;;;;;;;14.17;10.07;;;23.70;50.30;;;;;;4946314;28;20257;-81
2022/03/03 11:22:41;;;;;;;17.40;10.37;;;24.50;48.60;;;;;;4959382;28;20188;-80
2022/03/03 11:25:14;;;;;;;12.37;9.50;;;25.50;47.50;;;;;;4960342;28;20206;-80
2022/03/03 11:27:41;;;;;;;14.20;10.13;;;26.20;46.10;;;;;;4963370;28;20327;-80
2022/03/03 11:30:31;;;;;;;13.93;10.33;;;26.80;45.20;;;;;;4962360;28;20209;-80
2022/03/03 11:33:26;;;;;;;16.77;10.60;;;27.00;43.40;;;;;;4940440;28;20212;-79
2022/03/03 11:35:56;;;;;;;17.90;10.02;;;27.50;42.90;;;;;;4928021;28;20405;-81
2022/03/03 11:38:24;;;;;;;14.07;10.55;;;28.00;42.60;;;;;;4959680;28;20307;-81
2022/03/03 11:40:57;;;;;;;14.02;10.05;;;28.10;41.20;;;;;;4944025;28;20287;-80
2022/03/03 11:43:23;;;;;;;15.20;10.30;;;27.10;39.10;;;;;;4943234;28;20734;-81
2022/03/03 11:45:51;;;;;;;13.87;10.27;;;24.90;39.30;;;;;;4962037;28;20293;-80
2022/03/03 11:48:20;;;;;;;15.60;10.40;;;22.70;40.20;;;;;;4944911;28;20200;-80
2022/03/03 11:50:48;;;;;;;15.27;10.33;;;20.50;41.70;;;;;;4935382;28;20203;-80
2022/03/03 11:53:20;;;;;;;16.30;10.80;;;18.50;43.30;;;;;;4960125;28;20198;-80
2022/03/03 11:56:03;;;;;;;13.97;9.90;;;17.00;44.70;;;;;;4951770;28;20212;-80
2022/03/03 11:58:39;;;;;;;13.67;9.53;;;15.80;45.90;;;;;;4951355;28;20216;-80
2022/03/03 12:01:11;;;;;;;17.47;10.53;;;15.10;46.70;;;;;;4951360;28;20187;-80
2022/03/03 12:04:04;;;;;;;18.67;10.07;;;14.60;47.30;;;;;;4967171;28;20209;-79
2022/03/03 12:06:43;;;;;;;15.77;9.60;;;14.20;47.90;;;;;;4951765;28;20228;-80
2022/03/03 12:09:19;;;;;;;19.67;10.13;;;13.80;48.20;;;;;;4952096;28;20276;-80
2022/03/03 12:11:45;;;;;;;15.37;9.60;;;13.50;48.70;;;;;;4962048;28;20219;-81
2022/03/03 12:14:32;;;;;;;17.27;10.27;;;13.20;48.90;;;;;;4959663;28;20235;-79
2022/03/03 12:17:39;;;;;;;18.77;10.13;;;13.00;49.40;;;;;;4967657;28;20881;-79
2022/03/03 12:20:23;;;;;;;17.27;9.87;;;12.80;50.00;;;;;;4964423;28;20354;-80
2022/03/03 12:23:22;;;;;;;18.17;9.77;;;12.60;50.50;;;;;;4968425;28;20190;-81
2022/03/03 12:25:50;;;;;;;16.93;10.03;;;12.50;50.90;;;;;;4961439;28;20203;-80
2022/03/03 12:28:40;;;;;;;15.10;9.83;;;12.40;51.10;;;;;;4964212;28;20219;-80
2022/03/03 12:31:43;;;;;;;17.60;10.20;;;12.40;51.60;;;;;;4963738;28;20201;-82
2022/03/03 12:34:24;;;;;;;18.13;10.47;;;12.30;51.90;;;;;;4960684;28;20206;-80
2022/03/03 12:36:54;;;;;;;20.60;10.47;;;12.30;52.00;;;;;;4961493;28;20854;-79
2022/03/03 12:39:20;;;;;;;18.77;9.70;;;12.30;52.40;;;;;;4960936;28;20194;-81
2022/03/03 12:41:46;;;;;;;18.77;10.53;;;12.20;52.70;;;;;;4945850;28;20203;-81
2022/03/03 12:44:14;;;;;;;18.43;9.83;;;12.10;53.10;;;;;;4961172;28;20658;-81